Time;durP1;ratioP1;P1;durP2;ratioP2;P2;SDS_P1;SDS_P2;PMS_P1;PMS_P2;Temp;Humidity;BMP_temperature;BMP_pressure;BME280_temperature;BME280_humidity;BME280_pressure;Samples;Min_cycle;Max_cycle;Signal;HPM_P1;HPM_P2
2021/03/28 00:04:00;;;;;;;16.88;7.07;;;4.80;98.30;;;;;;5122087;23;20671;-85
2021/03/28 00:06:17;;;;;;;13.88;7.75;;;4.70;98.30;;;;;;5160778;22;20277;-84
2021/03/28 00:08:24;;;;;;;17.05;7.88;;;4.70;98.30;;;;;;5199930;22;20228;-85
2021/03/28 00:10:34;;;;;;;16.92;6.55;;;4.70;98.30;;;;;;5199696;22;20196;-85
2021/03/28 00:12:38;;;;;;;18.90;7.82;;;4.70;98.30;;;;;;5200275;22;20669;-85
2021/03/28 00:14:48;;;;;;;18.48;7.70;;;4.70;98.30;;;;;;5200477;22;20210;-83
2021/03/28 00:16:51;;;;;;;12.52;6.70;;;4.70;98.30;;;;;;5200589;22;20206;-85
2021/03/28 00:19:04;;;;;;;13.63;7.03;;;4.70;98.30;;;;;;5199586;22;20526;-86
2021/03/28 00:21:13;;;;;;;13.38;6.13;;;4.70;98.30;;;;;;5199345;22;20207;-84
2021/03/28 00:23:23;;;;;;;15.32;6.57;;;4.70;98.30;;;;;;5200442;22;20708;-84
2021/03/28 00:25:34;;;;;;;12.00;6.80;;;4.60;98.30;;;;;;5200312;22;20206;-85
2021/03/28 00:27:43;;;;;;;14.30;6.60;;;4.60;98.30;;;;;;5199896;22;20204;-85
2021/03/28 00:29:52;;;;;;;14.55;7.18;;;4.60;98.30;;;;;;5198274;22;20705;-85
2021/03/28 00:31:58;;;;;;;22.23;7.75;;;4.60;98.30;;;;;;5199227;22;20203;-84
2021/03/28 00:34:09;;;;;;;17.70;7.35;;;4.60;98.30;;;;;;5199866;22;20204;-84
2021/03/28 00:36:16;;;;;;;14.05;6.50;;;4.60;98.30;;;;;;5200939;22;20507;-85
2021/03/28 00:38:22;;;;;;;19.92;8.70;;;4.60;98.30;;;;;;5200293;22;20536;-85
2021/03/28 00:40:29;;;;;;;18.80;7.60;;;4.60;98.30;;;;;;5200289;22;20228;-85
2021/03/28 00:42:34;;;;;;;11.40;5.25;;;4.50;98.30;;;;;;5200448;22;20226;-85
2021/03/28 00:44:49;;;;;;;10.05;6.28;;;4.60;98.30;;;;;;5200221;22;20200;-86
2021/03/28 00:46:57;;;;;;;24.75;9.45;;;4.50;98.30;;;;;;5199913;22;20196;-86
2021/03/28 00:49:01;;;;;;;12.25;6.95;;;4.60;98.30;;;;;;5199305;22;20283;-84
2021/03/28 00:51:13;;;;;;;16.88;8.10;;;4.60;98.30;;;;;;5199748;22;20192;-85
2021/03/28 00:53:32;;;;;;;18.33;7.63;;;4.60;98.30;;;;;;5200048;22;20265;-84
2021/03/28 00:55:38;;;;;;;19.05;7.50;;;4.60;98.30;;;;;;5173708;22;20288;-85
2021/03/28 00:57:43;;;;;;;12.90;5.82;;;4.60;98.30;;;;;;5199629;22;20212;-84
2021/03/28 00:59:54;;;;;;;17.63;6.57;;;4.60;98.30;;;;;;5199955;22;20318;-85
2021/03/28 01:02:14;;;;;;;15.25;5.85;;;4.60;98.30;;;;;;5201284;22;20229;-84
2021/03/28 01:04:53;;;;;;;16.38;7.63;;;4.60;98.30;;;;;;5201601;22;20196;-85
2021/03/28 01:07:03;;;;;;;15.95;6.50;;;4.60;98.30;;;;;;5098193;23;20317;-84
2021/03/28 01:09:16;;;;;;;19.63;6.18;;;4.50;98.30;;;;;;5097468;23;20218;-83
2021/03/28 01:11:33;;;;;;;18.17;6.20;;;4.60;98.30;;;;;;5108672;22;20206;-85
2021/03/28 01:14:24;;;;;;;14.48;6.60;;;4.60;98.30;;;;;;5201221;22;20286;-85
2021/03/28 01:17:00;;;;;;;16.98;7.65;;;4.60;98.30;;;;;;5192199;22;20299;-82
2021/03/28 01:19:21;;;;;;;19.40;6.38;;;4.60;98.30;;;;;;5200435;22;20200;-82
2021/03/28 01:21:36;;;;;;;15.32;6.10;;;4.60;98.30;;;;;;5200377;22;20200;-82
2021/03/28 01:23:42;;;;;;;16.88;7.68;;;4.60;98.30;;;;;;5200295;22;20527;-82
2021/03/28 01:26:10;;;;;;;16.33;7.13;;;4.60;98.30;;;;;;5200840;22;20224;-82
2021/03/28 01:28:21;;;;;;;10.60;6.45;;;4.70;98.30;;;;;;5191677;22;20208;-82
2021/03/28 01:30:35;;;;;;;12.63;6.47;;;4.60;98.30;;;;;;5190968;22;20200;-82
2021/03/28 01:32:40;;;;;;;22.55;8.20;;;4.60;98.30;;;;;;5201127;22;20232;-82
2021/03/28 01:35:05;;;;;;;18.10;6.65;;;4.60;98.30;;;;;;5192668;22;20280;-82
2021/03/28 01:37:12;;;;;;;16.20;6.75;;;4.60;98.30;;;;;;5199175;22;20201;-82
2021/03/28 01:39:21;;;;;;;23.13;6.55;;;4.70;98.30;;;;;;5192187;22;20207;-82
2021/03/28 01:41:29;;;;;;;23.27;7.95;;;4.60;98.30;;;;;;5200820;22;20204;-83
2021/03/28 01:43:43;;;;;;;18.05;8.13;;;4.70;98.30;;;;;;5201295;22;20196;-82
2021/03/28 01:45:52;;;;;;;12.80;6.63;;;4.60;98.30;;;;;;5202571;22;20207;-82
2021/03/28 01:48:16;;;;;;;25.00;7.07;;;4.70;98.30;;;;;;5201934;22;20204;-82
2021/03/28 01:50:39;;;;;;;21.88;7.25;;;4.60;98.30;;;;;;5202382;22;20207;-82
2021/03/28 01:52:49;;;;;;;25.70;8.50;;;4.60;98.30;;;;;;5203495;22;20282;-82
2021/03/28 01:55:03;;;;;;;19.00;6.80;;;4.60;98.30;;;;;;5173851;22;20535;-80
2021/03/28 01:57:12;;;;;;;16.88;7.97;;;4.60;98.30;;;;;;5165732;23;20667;-80
2021/03/28 01:59:27;;;;;;;12.27;5.82;;;4.60;98.30;;;;;;5165270;23;20209;-81
2021/03/28 02:01:42;;;;;;;19.92;7.38;;;4.60;98.30;;;;;;5174523;23;20636;-81
2021/03/28 02:03:58;;;;;;;18.00;6.82;;;4.60;98.30;;;;;;5165873;22;20952;-80
2021/03/28 02:06:12;;;;;;;19.45;7.82;;;4.60;98.30;;;;;;5165918;23;20213;-80
2021/03/28 02:08:23;;;;;;;21.38;8.30;;;4.60;98.30;;;;;;5165958;23;20306;-81
2021/03/28 02:10:46;;;;;;;32.55;8.63;;;4.60;98.30;;;;;;5172999;23;20201;-80
2021/03/28 02:12:54;;;;;;;20.60;7.00;;;4.60;98.30;;;;;;5173998;23;20207;-80
2021/03/28 02:15:30;;;;;;;16.52;7.72;;;4.60;98.30;;;;;;5173205;22;20678;-80
2021/03/28 02:17:49;;;;;;;13.02;6.70;;;4.60;98.30;;;;;;5174528;23;20205;-82
2021/03/28 02:20:01;;;;;;;13.85;6.93;;;4.60;98.30;;;;;;5173165;23;20836;-82
2021/03/28 02:22:15;;;;;;;15.63;7.38;;;4.60;98.30;;;;;;5166241;23;20209;-82
2021/03/28 02:24:23;;;;;;;20.75;7.60;;;4.70;98.30;;;;;;5166041;22;20204;-82
2021/03/28 02:26:32;;;;;;;15.15;6.95;;;4.60;98.30;;;;;;5166518;23;20205;-82
2021/03/28 02:28:50;;;;;;;12.35;7.15;;;4.60;98.30;;;;;;5166212;23;20204;-82
2021/03/28 02:30:59;;;;;;;17.95;7.00;;;4.60;98.30;;;;;;5165715;23;20197;-81
2021/03/28 02:33:16;;;;;;;21.05;7.30;;;4.60;98.30;;;;;;5174530;23;20209;-82
2021/03/28 02:35:47;;;;;;;14.90;6.30;;;4.60;98.30;;;;;;5174510;23;20201;-81
2021/03/28 02:37:58;;;;;;;16.08;6.97;;;4.60;98.30;;;;;;5166076;23;20259;-82
2021/03/28 02:40:09;;;;;;;14.77;7.07;;;4.60;98.30;;;;;;5165126;23;20731;-82
2021/03/28 02:42:17;;;;;;;19.85;7.10;;;4.60;98.30;;;;;;5174407;23;20516;-81
2021/03/28 02:44:30;;;;;;;22.85;7.35;;;4.60;98.30;;;;;;5165446;22;20211;-83
2021/03/28 02:46:45;;;;;;;14.93;7.25;;;4.60;98.30;;;;;;5164982;23;20209;-82
2021/03/28 02:49:02;;;;;;;20.42;7.80;;;4.60;98.30;;;;;;5165114;23;20215;-83
2021/03/28 02:51:28;;;;;;;14.15;7.30;;;4.60;98.30;;;;;;5173989;23;20227;-82
2021/03/28 02:53:46;;;;;;;20.73;7.05;;;4.60;98.30;;;;;;5173973;22;20586;-81
2021/03/28 02:56:13;;;;;;;17.90;6.57;;;4.50;98.30;;;;;;5038381;23;20209;-81
2021/03/28 02:58:24;;;;;;;15.65;7.05;;;4.50;98.30;;;;;;5061383;23;20255;-83
2021/03/28 03:00:32;;;;;;;18.23;6.65;;;4.50;98.30;;;;;;5037836;23;20277;-82
2021/03/28 03:02:51;;;;;;;12.88;6.82;;;4.50;98.30;;;;;;5038923;23;20209;-81
2021/03/28 03:05:20;;;;;;;17.65;6.50;;;4.40;98.30;;;;;;5038532;23;20733;-80
2021/03/28 03:07:41;;;;;;;13.80;7.50;;;4.40;98.30;;;;;;5038763;23;20204;-81
2021/03/28 03:10:03;;;;;;;19.70;6.72;;;4.40;98.30;;;;;;5045416;23;20300;-82
2021/03/28 03:12:27;;;;;;;15.57;8.35;;;4.40;98.30;;;;;;5046829;23;20213;-81
2021/03/28 03:14:43;;;;;;;18.65;6.95;;;4.40;98.30;;;;;;5038422;23;20303;-81
2021/03/28 03:17:30;;;;;;;14.90;6.78;;;4.40;98.30;;;;;;5038597;23;20215;-82
2021/03/28 03:20:09;;;;;;;15.48;7.05;;;4.40;98.30;;;;;;5052323;23;20271;-82
2021/03/28 03:22:49;;;;;;;18.95;7.00;;;4.40;98.30;;;;;;5038707;23;20699;-81
2021/03/28 03:25:38;;;;;;;17.80;6.97;;;4.40;98.30;;;;;;5038415;23;20212;-81
2021/03/28 03:28:20;;;;;;;20.27;7.10;;;4.40;98.30;;;;;;4949544;24;20215;-81
2021/03/28 03:30:49;;;;;;;14.73;6.18;;;4.50;98.30;;;;;;5024203;23;20212;-81
2021/03/28 03:33:19;;;;;;;17.95;6.45;;;4.40;98.30;;;;;;5046828;23;20536;-81
2021/03/28 03:35:33;;;;;;;16.05;7.15;;;4.50;98.30;;;;;;5037707;23;20205;-82
2021/03/28 03:37:49;;;;;;;15.15;7.20;;;4.50;98.30;;;;;;5047380;23;20279;-82
2021/03/28 03:40:13;;;;;;;15.55;6.03;;;4.60;98.30;;;;;;5049995;23;20706;-81
2021/03/28 03:43:12;;;;;;;13.43;6.25;;;4.60;98.30;;;;;;5042794;23;20219;-83
2021/03/28 03:45:37;;;;;;;14.77;5.90;;;4.60;98.30;;;;;;4955583;23;20799;-81
2021/03/28 03:47:43;;;;;;;16.27;7.60;;;4.50;98.30;;;;;;4945887;24;20795;-82
2021/03/28 03:50:15;;;;;;;16.42;5.82;;;4.50;98.30;;;;;;4977850;23;20213;-82
2021/03/28 03:52:47;;;;;;;15.02;6.57;;;4.50;98.30;;;;;;5049975;23;20297;-82
2021/03/28 03:54:56;;;;;;;17.83;6.70;;;4.60;98.30;;;;;;5056504;23;20269;-81
2021/03/28 03:57:08;;;;;;;9.70;5.57;;;4.50;98.30;;;;;;5063681;23;20210;-82
2021/03/28 03:59:16;;;;;;;12.23;6.20;;;4.50;98.30;;;;;;5061705;23;20689;-82
2021/03/28 04:01:24;;;;;;;16.40;6.60;;;4.50;98.30;;;;;;5070581;23;20208;-82
2021/03/28 04:03:33;;;;;;;12.85;6.30;;;4.60;98.30;;;;;;5062736;23;20211;-83
2021/03/28 04:06:00;;;;;;;12.13;5.90;;;4.60;98.30;;;;;;5062677;23;20208;-81
2021/03/28 04:08:21;;;;;;;14.98;6.00;;;4.60;98.30;;;;;;5070486;23;20208;-82
2021/03/28 04:10:35;;;;;;;13.90;5.97;;;4.60;98.30;;;;;;5069777;23;20200;-82
2021/03/28 04:13:01;;;;;;;12.35;6.47;;;4.70;98.30;;;;;;5062760;23;20212;-82
2021/03/28 04:15:12;;;;;;;18.38;5.45;;;4.70;98.30;;;;;;5070592;23;20214;-81
2021/03/28 04:17:42;;;;;;;10.45;5.32;;;4.70;98.30;;;;;;5062495;23;20214;-81
2021/03/28 04:19:55;;;;;;;17.65;6.10;;;4.60;98.30;;;;;;5061918;23;20212;-81
2021/03/28 04:22:24;;;;;;;12.30;5.75;;;4.60;98.30;;;;;;5062728;23;20208;-82
2021/03/28 04:24:39;;;;;;;13.35;6.22;;;4.60;98.30;;;;;;5070338;23;20559;-82
2021/03/28 04:27:03;;;;;;;10.68;5.72;;;4.70;98.30;;;;;;5063021;23;20208;-83
2021/03/28 04:29:07;;;;;;;15.05;6.22;;;4.70;98.30;;;;;;5061846;23;20212;-81
2021/03/28 04:31:55;;;;;;;18.70;6.05;;;4.80;98.30;;;;;;5062281;23;20207;-81
2021/03/28 04:34:03;;;;;;;14.25;6.13;;;4.70;98.30;;;;;;5085125;23;20210;-81
2021/03/28 04:36:16;;;;;;;10.25;5.30;;;4.80;98.30;;;;;;5071028;23;20282;-81
2021/03/28 04:38:29;;;;;;;15.68;5.25;;;4.80;98.30;;;;;;5071038;23;20219;-80
2021/03/28 04:40:56;;;;;;;13.23;5.55;;;4.80;98.30;;;;;;5061846;23;20217;-83
2021/03/28 04:43:26;;;;;;;14.95;7.07;;;4.80;98.30;;;;;;5062568;23;20211;-81
2021/03/28 04:46:00;;;;;;;10.55;5.78;;;4.80;98.30;;;;;;5062693;23;20539;-81
2021/03/28 04:48:27;;;;;;;18.17;5.85;;;4.70;98.30;;;;;;5062264;23;20204;-81
2021/03/28 04:51:02;;;;;;;11.75;6.53;;;4.70;98.30;;;;;;5062078;23;20204;-81
2021/03/28 04:53:32;;;;;;;10.23;5.93;;;4.80;98.30;;;;;;5062612;23;20208;-81
2021/03/28 04:56:04;;;;;;;15.23;7.05;;;4.90;98.30;;;;;;5070017;23;20258;-82
2021/03/28 04:58:50;;;;;;;16.20;5.63;;;4.90;98.30;;;;;;5062282;23;20527;-81
2021/03/28 05:01:08;;;;;;;11.80;5.90;;;4.80;98.30;;;;;;5065092;23;20220;-82
2021/03/28 05:03:39;;;;;;;11.95;6.18;;;4.80;98.30;;;;;;5062166;23;20216;-82
2021/03/28 05:05:58;;;;;;;11.80;5.90;;;4.80;98.30;;;;;;5070173;23;20218;-81
2021/03/28 05:08:33;;;;;;;18.67;6.65;;;4.90;98.30;;;;;;5062499;23;20208;-83
2021/03/28 05:11:19;;;;;;;12.60;5.82;;;4.80;98.30;;;;;;5062273;23;20207;-82
2021/03/28 05:14:00;;;;;;;16.17;6.80;;;4.90;98.30;;;;;;5061993;23;20208;-82
2021/03/28 05:16:46;;;;;;;25.25;7.35;;;4.90;98.30;;;;;;5062194;23;20615;-82
2021/03/28 05:19:16;;;;;;;11.77;6.13;;;4.90;98.30;;;;;;5062801;23;20667;-83
2021/03/28 05:21:58;;;;;;;14.32;6.00;;;4.90;98.30;;;;;;5062679;23;20209;-82
2021/03/28 05:24:48;;;;;;;13.25;6.10;;;4.90;98.30;;;;;;5063723;23;20208;-82
2021/03/28 05:27:42;;;;;;;8.65;5.53;;;4.90;98.30;;;;;;5062391;23;20721;-82
2021/03/28 05:30:28;;;;;;;14.93;6.45;;;4.90;98.30;;;;;;5070208;23;20204;-83
2021/03/28 05:32:53;;;;;;;12.82;5.90;;;4.90;98.30;;;;;;5088019;23;20208;-83
2021/03/28 05:35:30;;;;;;;15.20;6.15;;;5.00;98.30;;;;;;5087678;23;20215;-82
2021/03/28 05:38:06;;;;;;;17.08;6.10;;;5.00;98.30;;;;;;5077382;23;20208;-82
2021/03/28 05:40:33;;;;;;;16.88;6.20;;;5.00;98.30;;;;;;5084828;23;20200;-82
2021/03/28 05:43:09;;;;;;;17.38;6.55;;;5.00;98.30;;;;;;5070268;23;20213;-82
2021/03/28 05:45:46;;;;;;;14.90;6.30;;;5.00;98.30;;;;;;4994080;23;20226;-82
2021/03/28 05:48:16;;;;;;;15.60;5.50;;;5.10;98.30;;;;;;5071928;23;20208;-82
2021/03/28 05:50:26;;;;;;;9.95;5.50;;;5.00;98.30;;;;;;5062583;23;20208;-82
2021/03/28 05:53:17;;;;;;;15.32;7.78;;;5.00;98.30;;;;;;5071216;23;20311;-82
2021/03/28 05:55:52;;;;;;;9.77;5.57;;;5.10;98.30;;;;;;5088912;23;20281;-82
2021/03/28 05:58:14;;;;;;;11.25;6.78;;;5.10;98.30;;;;;;5088662;23;20858;-81
2021/03/28 06:00:39;;;;;;;12.20;5.70;;;5.10;98.30;;;;;;5075943;23;20208;-83
2021/03/28 06:03:19;;;;;;;11.77;5.60;;;5.20;98.30;;;;;;5063959;23;20215;-81
2021/03/28 06:06:06;;;;;;;12.38;5.70;;;5.20;98.30;;;;;;5014656;23;20208;-82
2021/03/28 06:08:53;;;;;;;12.27;5.93;;;5.20;98.30;;;;;;5063052;23;20223;-82
2021/03/28 06:11:24;;;;;;;10.73;5.05;;;5.20;98.30;;;;;;5096953;23;20204;-81
2021/03/28 06:13:57;;;;;;;15.35;5.82;;;5.30;98.30;;;;;;5069333;23;20208;-81
2021/03/28 06:16:20;;;;;;;11.00;5.40;;;5.30;98.30;;;;;;5063137;23;20204;-82
2021/03/28 06:19:03;;;;;;;8.30;5.25;;;5.40;98.30;;;;;;5071133;23;20256;-81
2021/03/28 06:21:45;;;;;;;12.27;5.38;;;5.40;98.30;;;;;;5072660;23;20677;-81
2021/03/28 06:24:14;;;;;;;14.35;6.18;;;5.40;98.30;;;;;;5004133;23;20204;-81
2021/03/28 06:27:13;;;;;;;18.75;6.20;;;5.40;98.30;;;;;;5071209;23;20227;-82
2021/03/28 06:29:49;;;;;;;18.05;6.45;;;5.40;98.30;;;;;;5079959;23;20818;-82
2021/03/28 06:32:26;;;;;;;14.43;6.10;;;5.50;98.30;;;;;;5063077;23;20216;-82
2021/03/28 06:35:19;;;;;;;13.85;6.07;;;5.50;98.30;;;;;;5062847;23;20208;-82
2021/03/28 06:37:53;;;;;;;11.73;6.33;;;5.60;98.30;;;;;;5070526;23;20204;-81
2021/03/28 06:40:38;;;;;;;8.97;5.57;;;5.60;98.30;;;;;;5062720;23;20459;-82
2021/03/28 06:43:13;;;;;;;15.17;7.13;;;5.70;98.30;;;;;;5070834;23;20445;-81
2021/03/28 06:45:57;;;;;;;11.40;6.10;;;5.70;98.30;;;;;;5063188;23;20456;-82
2021/03/28 06:48:30;;;;;;;7.00;5.57;;;5.70;98.30;;;;;;5087021;23;20797;-82
2021/03/28 06:50:57;;;;;;;8.90;5.47;;;5.70;98.30;;;;;;5086631;23;20795;-82
2021/03/28 06:53:32;;;;;;;12.23;6.80;;;5.70;98.30;;;;;;5070984;23;20448;-81
2021/03/28 06:55:38;;;;;;;15.97;6.00;;;5.70;98.30;;;;;;5063179;23;20531;-82
2021/03/28 06:58:26;;;;;;;15.40;6.17;;;5.80;98.30;;;;;;5070489;23;20449;-82
2021/03/28 07:01:04;;;;;;;12.60;6.97;;;5.80;98.30;;;;;;5062436;23;20452;-81
2021/03/28 07:03:42;;;;;;;11.90;6.00;;;5.80;98.30;;;;;;5070902;23;20488;-83
2021/03/28 07:05:48;;;;;;;11.40;6.03;;;5.90;98.30;;;;;;5063399;23;20788;-81
2021/03/28 07:08:20;;;;;;;15.57;5.77;;;6.00;98.30;;;;;;5070669;23;20457;-82
2021/03/28 07:10:40;;;;;;;13.00;6.37;;;6.00;98.30;;;;;;5062890;23;20454;-81
2021/03/28 07:13:05;;;;;;;13.50;6.63;;;6.00;98.30;;;;;;5062798;23;20461;-81
2021/03/28 07:15:37;;;;;;;20.03;5.83;;;6.00;98.30;;;;;;5071218;23;20465;-81
2021/03/28 07:18:12;;;;;;;13.13;6.13;;;6.10;98.30;;;;;;5062680;23;20473;-82
2021/03/28 07:20:45;;;;;;;15.53;6.33;;;6.20;98.30;;;;;;5062333;23;20459;-81
2021/03/28 07:23:15;;;;;;;11.30;6.00;;;6.20;98.30;;;;;;5082792;23;20827;-81
2021/03/28 07:25:51;;;;;;;11.27;5.30;;;6.20;98.30;;;;;;5062698;23;20788;-82
2021/03/28 07:28:40;;;;;;;15.47;5.57;;;6.30;98.30;;;;;;5062513;23;20460;-81
2021/03/28 07:31:13;;;;;;;16.77;5.63;;;6.30;98.30;;;;;;5062232;23;20456;-81
2021/03/28 07:33:44;;;;;;;16.40;7.53;;;6.30;98.30;;;;;;5063170;23;20746;-82
2021/03/28 07:36:26;;;;;;;11.80;5.97;;;6.40;98.30;;;;;;5070533;23;20468;-82
2021/03/28 07:39:09;;;;;;;7.23;5.40;;;6.40;98.30;;;;;;5066673;23;20458;-82
2021/03/28 07:41:53;;;;;;;12.37;6.53;;;6.40;98.30;;;;;;5064933;23;20462;-82
2021/03/28 07:44:36;;;;;;;14.73;5.80;;;6.40;98.30;;;;;;5063765;23;20955;-82
2021/03/28 07:47:08;;;;;;;9.60;4.97;;;6.40;98.30;;;;;;5070609;23;20460;-81
2021/03/28 07:49:34;;;;;;;14.67;7.63;;;6.50;98.30;;;;;;5068317;23;20496;-82
2021/03/28 07:52:15;;;;;;;12.33;5.70;;;6.50;98.30;;;;;;5063204;23;20482;-82
2021/03/28 07:54:52;;;;;;;10.60;5.83;;;6.60;98.30;;;;;;5118961;22;20981;-79
2021/03/28 07:57:35;;;;;;;12.10;5.13;;;6.60;98.30;;;;;;5201094;22;20474;-80
2021/03/28 07:59:54;;;;;;;11.10;5.37;;;6.70;98.30;;;;;;5226531;22;20451;-79
2021/03/28 08:02:23;;;;;;;15.67;7.53;;;6.80;98.30;;;;;;5226532;22;20466;-79
2021/03/28 08:04:56;;;;;;;9.63;5.83;;;6.90;98.30;;;;;;5234599;22;20845;-79
2021/03/28 08:07:23;;;;;;;15.33;6.83;;;7.00;98.30;;;;;;5226276;22;20463;-79
2021/03/28 08:09:39;;;;;;;9.30;5.03;;;7.00;98.30;;;;;;5233740;22;20444;-79
2021/03/28 08:11:55;;;;;;;12.80;5.93;;;7.10;98.30;;;;;;5235207;22;20448;-79
2021/03/28 08:14:29;;;;;;;12.77;5.50;;;7.10;98.30;;;;;;5235571;22;20445;-79
2021/03/28 08:16:40;;;;;;;8.30;5.10;;;7.20;98.30;;;;;;5235909;22;20493;-79
2021/03/28 08:19:00;;;;;;;10.83;5.30;;;7.20;98.30;;;;;;5226975;22;20512;-79
2021/03/28 08:21:27;;;;;;;11.33;5.80;;;7.30;98.30;;;;;;5235806;22;20453;-79
2021/03/28 08:24:04;;;;;;;10.53;6.13;;;7.40;98.30;;;;;;5226724;22;20442;-80
2021/03/28 08:26:29;;;;;;;14.00;6.00;;;7.50;98.30;;;;;;5226076;22;20449;-79
2021/03/28 08:29:11;;;;;;;6.20;5.40;;;7.50;98.30;;;;;;5224174;22;21237;-79
2021/03/28 08:31:19;;;;;;;15.77;5.30;;;7.70;98.30;;;;;;5230890;22;20438;-79
2021/03/28 08:33:52;;;;;;;8.67;5.23;;;7.80;98.30;;;;;;5222700;22;20449;-79
2021/03/28 08:36:23;;;;;;;16.80;5.40;;;7.70;98.30;;;;;;5222558;22;20457;-80
2021/03/28 08:38:51;;;;;;;9.00;5.20;;;7.80;98.30;;;;;;5223184;22;20449;-79
2021/03/28 08:41:30;;;;;;;10.13;5.40;;;7.90;98.30;;;;;;5222472;22;20456;-79
2021/03/28 08:44:02;;;;;;;10.27;5.43;;;7.90;98.30;;;;;;5222541;22;20453;-80
2021/03/28 08:46:25;;;;;;;9.97;5.57;;;8.00;98.30;;;;;;5230129;22;20445;-80
2021/03/28 08:48:45;;;;;;;14.50;5.87;;;8.00;98.30;;;;;;5230344;22;20420;-80
2021/03/28 08:50:57;;;;;;;15.60;6.20;;;8.00;98.30;;;;;;5231907;22;20806;-80
2021/03/28 08:53:25;;;;;;;9.70;6.10;;;8.10;98.30;;;;;;5230937;22;20451;-79
2021/03/28 08:56:06;;;;;;;13.13;5.73;;;8.40;98.30;;;;;;5208262;22;20436;-80
2021/03/28 08:58:21;;;;;;;9.40;4.50;;;8.70;98.30;;;;;;5197746;22;20434;-79
2021/03/28 09:00:37;;;;;;;14.07;5.30;;;8.80;98.30;;;;;;5197239;22;20433;-80
2021/03/28 09:02:54;;;;;;;11.43;4.70;;;9.10;98.30;;;;;;5198295;22;20454;-79
2021/03/28 09:05:11;;;;;;;11.53;5.50;;;9.20;98.30;;;;;;5207203;22;20474;-79
2021/03/28 09:07:21;;;;;;;8.90;5.20;;;9.00;98.30;;;;;;5206218;22;20770;-80
2021/03/28 09:09:42;;;;;;;14.60;7.27;;;9.00;98.30;;;;;;5197421;22;20500;-79
2021/03/28 09:12:00;;;;;;;14.43;5.63;;;9.00;98.30;;;;;;5198010;22;20431;-80
2021/03/28 09:14:20;;;;;;;8.87;5.10;;;8.90;98.30;;;;;;5206007;22;20470;-80
2021/03/28 09:16:37;;;;;;;14.23;5.40;;;8.90;98.30;;;;;;5205215;22;20419;-80
2021/03/28 09:18:49;;;;;;;7.20;5.17;;;9.00;98.30;;;;;;5206263;22;20496;-79
2021/03/28 09:20:59;;;;;;;10.03;6.00;;;9.10;98.30;;;;;;5208664;22;20453;-80
2021/03/28 09:23:28;;;;;;;12.10;5.60;;;9.30;98.30;;;;;;5199123;22;20452;-79
2021/03/28 09:25:36;;;;;;;9.30;4.87;;;9.60;98.30;;;;;;5200448;22;20425;-80
2021/03/28 09:27:43;;;;;;;11.33;5.70;;;9.70;98.30;;;;;;5198153;22;20446;-80
2021/03/28 09:29:56;;;;;;;10.77;5.00;;;9.70;98.30;;;;;;5197921;22;20425;-80
2021/03/28 09:32:10;;;;;;;13.17;5.40;;;9.60;98.30;;;;;;5199608;22;20446;-80
2021/03/28 09:34:28;;;;;;;12.63;5.40;;;9.80;98.30;;;;;;5207777;22;20443;-80
2021/03/28 09:36:54;;;;;;;7.20;4.80;;;10.00;98.30;;;;;;5208236;22;20464;-80
2021/03/28 09:39:17;;;;;;;14.20;6.10;;;10.10;98.30;;;;;;5208190;22;20443;-79
2021/03/28 09:41:38;;;;;;;9.73;4.80;;;10.10;98.30;;;;;;5201065;22;20458;-80
2021/03/28 09:43:45;;;;;;;11.50;5.47;;;10.00;98.30;;;;;;5208538;22;20481;-80
2021/03/28 09:46:13;;;;;;;12.30;4.97;;;10.00;98.30;;;;;;5200368;22;20439;-79
2021/03/28 09:48:52;;;;;;;8.83;4.57;;;10.10;98.30;;;;;;5208859;22;20522;-80
2021/03/28 09:51:02;;;;;;;11.00;5.80;;;10.10;98.30;;;;;;5164064;22;20448;-80
2021/03/28 09:53:24;;;;;;;9.70;5.70;;;10.20;98.30;;;;;;5200649;22;20944;-80
2021/03/28 09:55:42;;;;;;;6.13;4.57;;;10.30;98.30;;;;;;5208500;22;20450;-79
2021/03/28 09:58:01;;;;;;;12.47;5.13;;;10.40;98.30;;;;;;5200657;22;20473;-79
2021/03/28 10:00:43;;;;;;;9.13;4.73;;;10.80;98.30;;;;;;5204743;22;20449;-80
2021/03/28 10:02:51;;;;;;;8.13;4.77;;;11.30;98.30;;;;;;5101909;23;20589;-80
2021/03/28 10:05:07;;;;;;;8.23;4.20;;;11.50;98.30;;;;;;5165151;22;20941;-80
2021/03/28 10:07:10;;;;;;;8.17;4.50;;;11.30;98.30;;;;;;5208819;22;20960;-80
2021/03/28 10:09:18;;;;;;;6.27;4.23;;;11.00;98.30;;;;;;5199176;22;20477;-80
2021/03/28 10:11:31;;;;;;;15.50;5.00;;;10.80;98.30;;;;;;5207963;22;20478;-81
2021/03/28 10:13:52;;;;;;;7.53;4.43;;;10.70;98.30;;;;;;5208668;22;20672;-80
2021/03/28 10:16:03;;;;;;;10.17;4.80;;;10.60;98.30;;;;;;5201123;22;20965;-81
2021/03/28 10:18:17;;;;;;;10.30;4.50;;;10.50;98.30;;;;;;5201729;22;20447;-80
2021/03/28 10:20:45;;;;;;;9.03;4.73;;;10.60;98.30;;;;;;5208365;22;20846;-80
2021/03/28 10:23:01;;;;;;;9.20;4.30;;;10.60;98.30;;;;;;5199642;22;20458;-80
2021/03/28 10:25:33;;;;;;;7.17;4.40;;;10.60;98.30;;;;;;5200703;22;20451;-80
2021/03/28 10:28:12;;;;;;;15.47;4.80;;;10.60;98.30;;;;;;5210458;22;20444;-80
2021/03/28 10:30:37;;;;;;;12.10;4.73;;;10.60;98.30;;;;;;5209802;22;20500;-80
2021/03/28 10:32:54;;;;;;;9.77;4.50;;;10.50;98.30;;;;;;5201794;22;20891;-80
2021/03/28 10:35:29;;;;;;;7.60;4.10;;;10.50;98.30;;;;;;5209750;22;20447;-81
2021/03/28 10:38:03;;;;;;;8.77;4.47;;;10.50;98.30;;;;;;5200670;22;20446;-81
2021/03/28 10:40:33;;;;;;;6.43;3.90;;;10.60;98.30;;;;;;5199948;22;20481;-81
2021/03/28 10:42:50;;;;;;;8.10;4.50;;;10.60;98.30;;;;;;5193058;22;20454;-81
2021/03/28 10:45:20;;;;;;;8.10;4.03;;;10.40;98.30;;;;;;5200456;22;20455;-81
2021/03/28 10:47:59;;;;;;;4.60;4.10;;;10.50;98.30;;;;;;5196772;22;20518;-81
2021/03/28 10:50:46;;;;;;;6.13;3.80;;;10.30;98.30;;;;;;5191417;22;20446;-80
2021/03/28 10:53:11;;;;;;;10.40;4.00;;;10.30;98.30;;;;;;5177992;22;20454;-80
2021/03/28 10:55:36;;;;;;;8.80;4.83;;;10.30;98.30;;;;;;5203486;22;20783;-82
2021/03/28 10:58:23;;;;;;;8.30;5.07;;;10.50;98.30;;;;;;5199706;22;20513;-81
2021/03/28 11:01:22;;;;;;;9.80;4.90;;;10.70;98.30;;;;;;5196750;22;20455;-81
2021/03/28 11:04:01;;;;;;;8.30;4.53;;;10.90;98.30;;;;;;5208969;22;20445;-81
2021/03/28 11:06:40;;;;;;;9.03;4.73;;;11.10;98.30;;;;;;5200146;22;21135;-81
2021/03/28 11:09:02;;;;;;;8.87;5.10;;;11.30;98.30;;;;;;5173566;22;20459;-81
2021/03/28 11:11:30;;;;;;;7.43;4.13;;;11.10;98.30;;;;;;5200936;22;20451;-81
2021/03/28 11:14:09;;;;;;;11.00;4.30;;;10.90;98.30;;;;;;5199353;22;20455;-81
2021/03/28 11:16:22;;;;;;;6.00;3.93;;;10.80;98.30;;;;;;5203267;22;20457;-82
2021/03/28 11:18:57;;;;;;;7.30;4.80;;;10.70;98.30;;;;;;5193306;22;20465;-82
2021/03/28 11:21:04;;;;;;;11.57;4.37;;;10.70;98.30;;;;;;5201267;22;20454;-82
2021/03/28 11:23:29;;;;;;;9.17;4.67;;;10.80;98.30;;;;;;5193086;22;20945;-82
2021/03/28 11:25:55;;;;;;;10.20;5.10;;;10.80;98.30;;;;;;5203191;22;20453;-81
2021/03/28 11:28:41;;;;;;;9.17;3.57;;;10.80;98.30;;;;;;5193381;22;20433;-81
2021/03/28 11:30:44;;;;;;;8.57;4.30;;;10.90;98.30;;;;;;5200557;22;20449;-82
2021/03/28 11:32:57;;;;;;;12.83;4.80;;;10.90;98.30;;;;;;5201136;22;20501;-81
2021/03/28 11:35:15;;;;;;;9.90;4.70;;;11.00;98.30;;;;;;5192691;22;20950;-82
2021/03/28 11:37:38;;;;;;;10.13;4.63;;;11.00;98.30;;;;;;5194449;22;20486;-81
2021/03/28 11:40:12;;;;;;;8.57;3.90;;;11.00;98.30;;;;;;5202359;22;20517;-82
2021/03/28 11:42:28;;;;;;;7.70;3.80;;;10.90;98.30;;;;;;5193164;22;20456;-82
2021/03/28 11:44:35;;;;;;;8.77;4.37;;;10.80;98.30;;;;;;5193655;22;20447;-81
2021/03/28 11:46:47;;;;;;;7.27;4.17;;;10.70;98.30;;;;;;5200907;22;20829;-81
2021/03/28 11:49:10;;;;;;;8.60;4.83;;;10.70;98.30;;;;;;5191902;22;20447;-81
2021/03/28 11:51:22;;;;;;;13.17;4.43;;;10.80;98.30;;;;;;5192751;22;20455;-81
2021/03/28 11:53:32;;;;;;;8.77;4.23;;;10.80;98.30;;;;;;5200703;22;20530;-81
2021/03/28 11:55:56;;;;;;;12.67;4.80;;;10.90;98.30;;;;;;5200048;22;20508;-81
2021/03/28 12:00:42;;;;;;;5.37;3.60;;;11.00;98.30;;;;;;4241533;27;20558;-81
2021/03/28 12:03:15;;;;;;;11.87;4.27;;;11.30;98.30;;;;;;4228854;28;20487;-81
2021/03/28 12:05:48;;;;;;;14.70;4.63;;;11.10;98.30;;;;;;4228001;28;20496;-81
2021/03/28 12:08:05;;;;;;;8.67;4.30;;;11.10;98.30;;;;;;4227800;28;20473;-81
2021/03/28 12:10:17;;;;;;;7.17;5.20;;;11.10;98.30;;;;;;4226409;28;20476;-81
2021/03/28 12:12:27;;;;;;;11.00;4.50;;;11.10;98.30;;;;;;4228986;28;21067;-81
2021/03/28 12:14:33;;;;;;;10.77;4.47;;;11.10;98.30;;;;;;4228044;28;20488;-80
2021/03/28 12:17:13;;;;;;;12.70;4.97;;;11.10;98.30;;;;;;4224698;28;20485;-81
2021/03/28 12:19:21;;;;;;;7.40;3.47;;;11.10;98.30;;;;;;4227072;28;20485;-81
2021/03/28 12:22:01;;;;;;;13.67;4.97;;;11.00;98.30;;;;;;4228009;28;20484;-81
2021/03/28 12:24:05;;;;;;;7.80;4.67;;;10.90;98.30;;;;;;4225825;28;20996;-81
2021/03/28 12:26:20;;;;;;;7.00;4.03;;;10.80;98.30;;;;;;4227387;28;20488;-82
2021/03/28 12:28:29;;;;;;;7.00;4.10;;;10.90;98.30;;;;;;4225564;28;20481;-83
2021/03/28 12:30:39;;;;;;;9.50;4.13;;;10.80;98.30;;;;;;4225420;28;20485;-84
2021/03/28 12:32:59;;;;;;;10.07;5.03;;;10.80;98.30;;;;;;4227295;28;20507;-83